• Join FlightAware (Why Join?)
  • Login
  • US Flag 
Gobble Gobble! 
01:44PM EST


 

Airport Tracker/Info


-or-


 

Live Flight TrackerFlight Track Log ✈ LNE516 ✈ 16-May-2013 ✈ SEQM / UIO - KMIA

Flight Track Log - Related Links

Times and Time Zones

All times are in EDT time to prevent confusion due to time zone crossing. See the LNE516 flight status page for this flight to view local times or setup timezone preferences in your user account.

Time Position Orientation Groundspeed Altitude Reporting Facility
EDT Latitude Longitude Course Direction KTS MPH feet Rate Location/Type
04:41AM 23.1617 -81.2464 North 451 519 36,000  Level Miami Center
04:42AM 23.2789 -81.2392 North 433 498 36,000  Level Miami Center
04:43AM 23.3917 -81.2361 North 419 482 36,000  Level Miami Center
04:44AM 23.5089 -81.2333 North 414 476 36,000  Level Miami Center
04:45AM 23.6258 -81.2283 North 414 476 36,000  Level Miami Center
04:46AM 23.7431 -81.2233 North 414 476 36,000  Level Miami Center
04:47AM 23.8600 -81.2228 360° North 414 476 36,000  Level Miami Center
04:49AM 0.0466 -78.5004 12° North  Level Estimated
04:56AM 0.8512 -78.5525 North  Level Estimated
04:57AM 0.9661 -78.5599 North  Level Estimated
04:58AM 1.0811 -78.5673 North  Level Estimated
04:59AM 1.1958 -78.5780 355° North  Level FlightAware Approximate
05:00AM 1.3107 -78.5854 North  Level Estimated
05:01AM 1.4257 -78.5929 61° Northeast  Level Estimated
05:02AM 1.5406 -78.6003 74° East  Level Estimated
05:03AM 1.6555 -78.6077 48° Northeast  Level Estimated
05:04AM 1.7705 -78.6152 72° East  Level Estimated
05:05AM 1.8854 -78.6226 61° Northeast  Level Estimated
05:06AM 2.0003 -78.6300 70° East  Level Estimated
05:07AM 2.1153 -78.6375 77° East  Level Estimated
05:08AM 2.2302 -78.6449 77° East  Level Estimated
05:09AM 2.3452 -78.6523 77° East  Level Estimated
05:10AM 2.4601 -78.6598 77° East  Level Estimated
05:11AM 2.5751 -78.6672 77° East  Level Estimated
05:12AM 2.6900 -78.6747 77° East  Level Estimated
05:13AM 2.8049 -78.6821 77° East  Level Estimated
05:14AM 2.9199 -78.6895 77° East  Level Estimated
05:15AM 3.0348 -78.6970 77° East  Level Estimated
05:16AM 3.1497 -78.7044 77° East  Level Estimated
05:17AM 3.2647 -78.7119 77° East  Level Estimated
05:18AM 3.3796 -78.7193 77° East  Level Estimated
05:19AM 3.4946 -78.7268 77° East  Level Estimated
05:20AM 3.6095 -78.7342 77° East  Level Estimated
05:21AM 3.7245 -78.7417 77° East  Level Estimated
05:22AM 3.8394 -78.7492 77° East  Level Estimated
05:23AM 3.9543 -78.7566 77° East  Level Estimated